sensor_id;sensor_type;location;lat;lon;timestamp;pressure;altitude;pressure_sealevel;temperature;humidity
27984;BME280;15317;50.360;8.726;2024-01-11T00:04:53;100771.00;;;-4.79;100.00
27984;BME280;15317;50.360;8.726;2024-01-11T00:09:57;100772.03;;;-4.86;100.00
27984;BME280;15317;50.360;8.726;2024-01-11T00:15:01;100764.91;;;-4.84;100.00
27984;BME280;15317;50.360;8.726;2024-01-11T00:20:06;100766.63;;;-4.82;100.00
27984;BME280;15317;50.360;8.726;2024-01-11T00:25:09;100773.00;;;-4.90;100.00
27984;BME280;15317;50.360;8.726;2024-01-11T00:30:14;100778.25;;;-4.87;100.00
27984;BME280;15317;50.360;8.726;2024-01-11T00:35:17;100779.97;;;-4.85;100.00
27984;BME280;15317;50.360;8.726;2024-01-11T00:40:21;100780.88;;;-4.87;100.00
27984;BME280;15317;50.360;8.726;2024-01-11T00:45:25;100782.66;;;-4.88;100.00
27984;BME280;15317;50.360;8.726;2024-01-11T00:50:28;100774.97;;;-5.00;100.00
27984;BME280;15317;50.360;8.726;2024-01-11T00:55:32;100777.69;;;-5.04;100.00
27984;BME280;15317;50.360;8.726;2024-01-11T01:00:36;100775.84;;;-4.99;100.00
27984;BME280;15317;50.360;8.726;2024-01-11T01:05:40;100781.28;;;-5.05;100.00
27984;BME280;15317;50.360;8.726;2024-01-11T01:10:43;100777.69;;;-5.04;100.00
27984;BME280;15317;50.360;8.726;2024-01-11T01:15:48;100769.84;;;-5.09;100.00
27984;BME280;15317;50.360;8.726;2024-01-11T01:20:51;100767.31;;;-5.13;100.00
27984;BME280;15317;50.360;8.726;2024-01-11T01:25:54;100771.09;;;-5.27;100.00
27984;BME280;15317;50.360;8.726;2024-01-11T01:30:59;100771.50;;;-5.48;100.00
27984;BME280;15317;50.360;8.726;2024-01-11T01:36:03;100793.69;;;-5.53;100.00
27984;BME280;15317;50.360;8.726;2024-01-11T01:41:06;100792.09;;;-5.65;100.00
27984;BME280;15317;50.360;8.726;2024-01-11T01:46:11;100787.63;;;-5.60;100.00
27984;BME280;15317;50.360;8.726;2024-01-11T01:51:17;100788.50;;;-5.60;100.00
27984;BME280;15317;50.360;8.726;2024-01-11T01:56:21;100778.75;;;-5.59;100.00
27984;BME280;15317;50.360;8.726;2024-01-11T02:01:25;100785.91;;;-5.63;100.00
27984;BME280;15317;50.360;8.726;2024-01-11T02:06:32;100788.28;;;-5.47;100.00
27984;BME280;15317;50.360;8.726;2024-01-11T02:11:37;100784.66;;;-5.43;100.00
27984;BME280;15317;50.360;8.726;2024-01-11T02:16:42;100791.59;;;-5.38;100.00
27984;BME280;15317;50.360;8.726;2024-01-11T02:21:46;100785.47;;;-5.40;100.00
27984;BME280;15317;50.360;8.726;2024-01-11T02:26:59;100781.00;;;-5.38;100.00
27984;BME280;15317;50.360;8.726;2024-01-11T02:32:03;100782.78;;;-5.38;100.00
27984;BME280;15317;50.360;8.726;2024-01-11T02:37:07;100778.44;;;-5.41;100.00
27984;BME280;15317;50.360;8.726;2024-01-11T02:42:11;100781.97;;;-5.42;100.00
27984;BME280;15317;50.360;8.726;2024-01-11T02:47:15;100778.41;;;-5.39;100.00
27984;BME280;15317;50.360;8.726;2024-01-11T02:52:18;100777.69;;;-5.47;100.00
27984;BME280;15317;50.360;8.726;2024-01-11T02:57:23;100760.03;;;-5.48;100.00
27984;BME280;15317;50.360;8.726;2024-01-11T03:02:26;100754.03;;;-5.58;100.00
27984;BME280;15317;50.360;8.726;2024-01-11T03:07:30;100747.06;;;-5.62;100.00
27984;BME280;15317;50.360;8.726;2024-01-11T03:12:36;100750.13;;;-5.85;100.00
27984;BME280;15317;50.360;8.726;2024-01-11T03:17:39;100746.75;;;-5.91;100.00
27984;BME280;15317;50.360;8.726;2024-01-11T03:22:45;100757.44;;;-5.99;100.00
27984;BME280;15317;50.360;8.726;2024-01-11T03:27:50;100767.25;;;-6.06;100.00
27984;BME280;15317;50.360;8.726;2024-01-11T03:32:53;100770.03;;;-6.13;100.00
27984;BME280;15317;50.360;8.726;2024-01-11T03:37:57;100762.16;;;-6.18;100.00
27984;BME280;15317;50.360;8.726;2024-01-11T03:43:01;100769.34;;;-6.26;100.00
27984;BME280;15317;50.360;8.726;2024-01-11T03:48:05;100766.88;;;-6.36;100.00
27984;BME280;15317;50.360;8.726;2024-01-11T03:53:09;100760.16;;;-6.57;100.00
27984;BME280;15317;50.360;8.726;2024-01-11T03:58:14;100769.06;;;-6.64;100.00
27984;BME280;15317;50.360;8.726;2024-01-11T04:03:17;100768.19;;;-6.66;100.00
27984;BME280;15317;50.360;8.726;2024-01-11T04:08:20;100761.84;;;-6.55;100.00
27984;BME280;15317;50.360;8.726;2024-01-11T04:13:25;100770.72;;;-6.59;100.00
27984;BME280;15317;50.360;8.726;2024-01-11T04:18:28;100781.31;;;-6.59;100.00
27984;BME280;15317;50.360;8.726;2024-01-11T04:23:31;100785.72;;;-6.59;100.00
27984;BME280;15317;50.360;8.726;2024-01-11T04:28:36;100790.19;;;-6.63;100.00
27984;BME280;15317;50.360;8.726;2024-01-11T04:33:40;100789.41;;;-6.69;100.00
27984;BME280;15317;50.360;8.726;2024-01-11T04:38:43;100796.34;;;-6.64;100.00
27984;BME280;15317;50.360;8.726;2024-01-11T04:43:49;100809.47;;;-6.56;100.00
27984;BME280;15317;50.360;8.726;2024-01-11T04:48:52;100804.94;;;-6.48;100.00
27984;BME280;15317;50.360;8.726;2024-01-11T04:53:56;100804.88;;;-6.42;100.00
27984;BME280;15317;50.360;8.726;2024-01-11T04:59:00;100801.16;;;-6.32;100.00
27984;BME280;15317;50.360;8.726;2024-01-11T05:04:03;100805.38;;;-6.20;100.00
27984;BME280;15317;50.360;8.726;2024-01-11T05:09:07;100799.31;;;-6.27;100.00
27984;BME280;15317;50.360;8.726;2024-01-11T05:14:11;100815.16;;;-6.24;100.00
27984;BME280;15317;50.360;8.726;2024-01-11T05:19:14;100822.22;;;-6.26;100.00
27984;BME280;15317;50.360;8.726;2024-01-11T05:24:18;100810.06;;;-6.38;100.00
27984;BME280;15317;50.360;8.726;2024-01-11T05:29:22;100812.72;;;-6.39;100.00
27984;BME280;15317;50.360;8.726;2024-01-11T05:34:25;100812.03;;;-6.50;100.00
27984;BME280;15317;50.360;8.726;2024-01-11T05:39:29;100822.63;;;-6.53;100.00
27984;BME280;15317;50.360;8.726;2024-01-11T05:44:34;100829.84;;;-6.67;100.00
27984;BME280;15317;50.360;8.726;2024-01-11T05:49:37;100830.88;;;-6.78;100.00
27984;BME280;15317;50.360;8.726;2024-01-11T05:54:40;100842.50;;;-6.91;100.00
27984;BME280;15317;50.360;8.726;2024-01-11T05:59:44;100843.44;;;-6.98;100.00
27984;BME280;15317;50.360;8.726;2024-01-11T06:04:48;100861.06;;;-6.98;100.00
27984;BME280;15317;50.360;8.726;2024-01-11T06:09:51;100868.19;;;-7.05;100.00
27984;BME280;15317;50.360;8.726;2024-01-11T06:14:56;100869.00;;;-7.00;100.00
27984;BME280;15317;50.360;8.726;2024-01-11T06:19:59;100868.09;;;-6.99;100.00
27984;BME280;15317;50.360;8.726;2024-01-11T06:25:03;100883.22;;;-7.13;100.00
27984;BME280;15317;50.360;8.726;2024-01-11T06:30:08;100881.53;;;-7.17;100.00
27984;BME280;15317;50.360;8.726;2024-01-11T06:35:12;100872.81;;;-7.27;100.00
27984;BME280;15317;50.360;8.726;2024-01-11T06:40:15;100879.00;;;-7.31;100.00
27984;BME280;15317;50.360;8.726;2024-01-11T06:45:19;100881.69;;;-7.35;100.00
27984;BME280;15317;50.360;8.726;2024-01-11T06:50:23;100891.34;;;-7.33;100.00
27984;BME280;15317;50.360;8.726;2024-01-11T06:55:26;100901.91;;;-7.33;100.00
27984;BME280;15317;50.360;8.726;2024-01-11T07:00:31;100892.09;;;-7.20;100.00
27984;BME280;15317;50.360;8.726;2024-01-11T07:05:34;100906.16;;;-7.18;100.00
27984;BME280;15317;50.360;8.726;2024-01-11T07:10:37;100911.50;;;-7.24;100.00
27984;BME280;15317;50.360;8.726;2024-01-11T07:15:42;100906.19;;;-7.21;100.00
27984;BME280;15317;50.360;8.726;2024-01-11T07:20:45;100900.94;;;-7.24;100.00
27984;BME280;15317;50.360;8.726;2024-01-11T07:25:50;100903.53;;;-7.21;100.00
27984;BME280;15317;50.360;8.726;2024-01-11T07:30:55;100893.91;;;-7.24;100.00
27984;BME280;15317;50.360;8.726;2024-01-11T07:35:58;100881.47;;;-7.14;100.00
27984;BME280;15317;50.360;8.726;2024-01-11T07:41:01;100869.97;;;-7.08;100.00
27984;BME280;15317;50.360;8.726;2024-01-11T07:46:06;100881.41;;;-7.08;100.00
27984;BME280;15317;50.360;8.726;2024-01-11T07:51:09;100881.38;;;-7.05;100.00
27984;BME280;15317;50.360;8.726;2024-01-11T07:56:13;100890.03;;;-6.91;100.00
27984;BME280;15317;50.360;8.726;2024-01-11T08:01:18;100895.19;;;-6.79;100.00
27984;BME280;15317;50.360;8.726;2024-01-11T08:06:21;100898.53;;;-6.64;100.00
27984;BME280;15317;50.360;8.726;2024-01-11T08:11:25;100906.34;;;-6.55;100.00
27984;BME280;15317;50.360;8.726;2024-01-11T08:16:32;100906.19;;;-6.42;100.00
27984;BME280;15317;50.360;8.726;2024-01-11T08:21:36;100929.81;;;-6.29;100.00
27984;BME280;15317;50.360;8.726;2024-01-11T08:26:39;100933.09;;;-6.12;100.00
27984;BME280;15317;50.360;8.726;2024-01-11T08:31:44;100946.00;;;-5.88;100.00
27984;BME280;15317;50.360;8.726;2024-01-11T08:36:47;100933.31;;;-5.68;100.00
27984;BME280;15317;50.360;8.726;2024-01-11T08:41:51;100920.00;;;-5.63;100.00
27984;BME280;15317;50.360;8.726;2024-01-11T08:46:56;100929.69;;;-5.61;100.00
27984;BME280;15317;50.360;8.726;2024-01-11T08:52:01;100935.66;;;-5.48;100.00
27984;BME280;15317;50.360;8.726;2024-01-11T08:57:05;100919.34;;;-5.24;100.00
27984;BME280;15317;50.360;8.726;2024-01-11T09:02:09;100919.81;;;-4.99;100.00
27984;BME280;15317;50.360;8.726;2024-01-11T09:07:19;100904.31;;;-3.91;100.00
27984;BME280;15317;50.360;8.726;2024-01-11T09:12:23;100910.69;;;-2.59;100.00
27984;BME280;15317;50.360;8.726;2024-01-11T09:17:27;100890.91;;;-1.36;95.69
27984;BME280;15317;50.360;8.726;2024-01-11T09:22:30;100913.97;;;-0.83;87.96
27984;BME280;15317;50.360;8.726;2024-01-11T09:27:34;100930.56;;;-0.50;83.04
27984;BME280;15317;50.360;8.726;2024-01-11T09:32:39;100928.34;;;-0.14;81.83
27984;BME280;15317;50.360;8.726;2024-01-11T09:37:42;100943.09;;;0.42;78.35
27984;BME280;15317;50.360;8.726;2024-01-11T09:42:48;100936.53;;;0.50;75.34
27984;BME280;15317;50.360;8.726;2024-01-11T09:47:52;100950.38;;;1.03;73.12
27984;BME280;15317;50.360;8.726;2024-01-11T09:52:56;100959.66;;;1.37;69.50
27984;BME280;15317;50.360;8.726;2024-01-11T09:58:00;100951.88;;;1.71;68.84
27984;BME280;15317;50.360;8.726;2024-01-11T10:03:05;100954.31;;;1.77;67.87
27984;BME280;15317;50.360;8.726;2024-01-11T10:08:08;100940.88;;;1.97;65.73
27984;BME280;15317;50.360;8.726;2024-01-11T10:13:11;100931.38;;;1.90;65.75
27984;BME280;15317;50.360;8.726;2024-01-11T10:18:16;100941.41;;;2.43;63.71
27984;BME280;15317;50.360;8.726;2024-01-11T10:23:23;100931.09;;;1.96;65.62
27984;BME280;15317;50.360;8.726;2024-01-11T10:28:26;100916.81;;;2.33;63.45
27984;BME280;15317;50.360;8.726;2024-01-11T10:33:33;100921.97;;;2.01;62.34
27984;BME280;15317;50.360;8.726;2024-01-11T10:38:39;100925.91;;;2.31;62.38
27984;BME280;15317;50.360;8.726;2024-01-11T10:43:43;100910.88;;;1.89;64.04
27984;BME280;15317;50.360;8.726;2024-01-11T10:48:53;100904.16;;;2.37;62.40
27984;BME280;15317;50.360;8.726;2024-01-11T10:53:59;100911.25;;;2.74;59.44
27984;BME280;15317;50.360;8.726;2024-01-11T10:59:04;100928.34;;;2.90;59.48
27984;BME280;15317;50.360;8.726;2024-01-11T11:04:10;100917.41;;;3.12;59.07
27984;BME280;15317;50.360;8.726;2024-01-11T11:09:13;100899.22;;;2.83;62.04
27984;BME280;15317;50.360;8.726;2024-01-11T11:14:18;100917.75;;;3.40;59.69
27984;BME280;15317;50.360;8.726;2024-01-11T11:19:23;100912.97;;;3.28;58.58
27984;BME280;15317;50.360;8.726;2024-01-11T11:24:28;100916.91;;;3.55;59.85
27984;BME280;15317;50.360;8.726;2024-01-11T11:29:31;100898.94;;;3.06;61.09
27984;BME280;15317;50.360;8.726;2024-01-11T11:34:41;100904.47;;;3.20;58.76
27984;BME280;15317;50.360;8.726;2024-01-11T11:39:47;100903.28;;;3.76;59.28
27984;BME280;15317;50.360;8.726;2024-01-11T11:44:50;100893.84;;;3.51;58.40
27984;BME280;15317;50.360;8.726;2024-01-11T11:50:03;100897.59;;;3.82;57.27
27984;BME280;15317;50.360;8.726;2024-01-11T11:55:08;100888.41;;;3.86;57.88
27984;BME280;15317;50.360;8.726;2024-01-11T12:00:12;100870.66;;;3.16;58.54
27984;BME280;15317;50.360;8.726;2024-01-11T12:05:18;100866.38;;;3.79;59.14
27984;BME280;15317;50.360;8.726;2024-01-11T12:10:21;100850.47;;;3.42;57.77
27984;BME280;15317;50.360;8.726;2024-01-11T12:15:26;100861.13;;;3.61;59.40
27984;BME280;15317;50.360;8.726;2024-01-11T12:20:32;100851.25;;;3.61;60.54
27984;BME280;15317;50.360;8.726;2024-01-11T12:25:35;100847.16;;;4.03;58.41
27984;BME280;15317;50.360;8.726;2024-01-11T12:30:39;100844.09;;;3.77;57.42
27984;BME280;15317;50.360;8.726;2024-01-11T12:35:44;100835.81;;;4.29;56.94
27984;BME280;15317;50.360;8.726;2024-01-11T12:40:47;100841.63;;;4.21;54.90
27984;BME280;15317;50.360;8.726;2024-01-11T12:45:51;100830.69;;;4.24;58.29
27984;BME280;15317;50.360;8.726;2024-01-11T12:50:57;100825.47;;;3.90;57.25
27984;BME280;15317;50.360;8.726;2024-01-11T12:56:18;100816.78;;;4.32;56.42
27984;BME280;15317;50.360;8.726;2024-01-11T13:01:24;100826.09;;;4.72;54.31
27984;BME280;15317;50.360;8.726;2024-01-11T13:06:29;100810.78;;;4.88;55.37
27984;BME280;15317;50.360;8.726;2024-01-11T13:11:33;100813.56;;;4.87;53.55
27984;BME280;15317;50.360;8.726;2024-01-11T13:16:36;100821.56;;;4.88;52.87
27984;BME280;15317;50.360;8.726;2024-01-11T13:21:41;100823.16;;;4.76;53.63
27984;BME280;15317;50.360;8.726;2024-01-11T13:26:44;100823.91;;;4.49;52.84
27984;BME280;15317;50.360;8.726;2024-01-11T13:31:47;100820.81;;;4.09;52.95
27984;BME280;15317;50.360;8.726;2024-01-11T13:36:52;100831.69;;;3.75;54.06
27984;BME280;15317;50.360;8.726;2024-01-11T13:41:55;100834.81;;;3.34;54.94
27984;BME280;15317;50.360;8.726;2024-01-11T13:46:58;100830.56;;;3.13;56.04
27984;BME280;15317;50.360;8.726;2024-01-11T13:52:04;100831.84;;;3.06;57.40
27984;BME280;15317;50.360;8.726;2024-01-11T13:57:08;100823.38;;;3.13;57.39
27984;BME280;15317;50.360;8.726;2024-01-11T14:02:11;100812.09;;;3.07;56.44
27984;BME280;15317;50.360;8.726;2024-01-11T14:07:16;100803.06;;;2.73;57.96
27984;BME280;15317;50.360;8.726;2024-01-11T14:12:19;100820.56;;;2.46;58.92
27984;BME280;15317;50.360;8.726;2024-01-11T14:17:22;100814.38;;;2.27;58.92
27984;BME280;15317;50.360;8.726;2024-01-11T14:22:27;100801.09;;;2.07;59.58
27984;BME280;15317;50.360;8.726;2024-01-11T14:27:30;100790.44;;;1.86;60.36
27984;BME280;15317;50.360;8.726;2024-01-11T14:32:34;100773.72;;;2.00;59.32
27984;BME280;15317;50.360;8.726;2024-01-11T14:37:40;100777.13;;;1.85;59.34
27984;BME280;15317;50.360;8.726;2024-01-11T14:42:44;100779.81;;;1.66;59.98
27984;BME280;15317;50.360;8.726;2024-01-11T14:47:48;100796.00;;;1.44;62.36
27984;BME280;15317;50.360;8.726;2024-01-11T14:52:53;100800.78;;;1.38;61.06
27984;BME280;15317;50.360;8.726;2024-01-11T14:57:56;100800.00;;;1.36;60.83
27984;BME280;15317;50.360;8.726;2024-01-11T15:03:02;100798.13;;;1.17;61.38
27984;BME280;15317;50.360;8.726;2024-01-11T15:08:07;100793.72;;;0.96;62.80
27984;BME280;15317;50.360;8.726;2024-01-11T15:13:11;100790.56;;;0.88;63.75
27984;BME280;15317;50.360;8.726;2024-01-11T15:18:14;100786.84;;;0.70;64.40
27984;BME280;15317;50.360;8.726;2024-01-11T15:23:19;100797.97;;;0.61;64.43
27984;BME280;15317;50.360;8.726;2024-01-11T15:28:22;100808.00;;;0.55;64.99
27984;BME280;15317;50.360;8.726;2024-01-11T15:33:25;100812.28;;;0.38;64.48
27984;BME280;15317;50.360;8.726;2024-01-11T15:38:30;100823.75;;;0.20;65.23
27984;BME280;15317;50.360;8.726;2024-01-11T15:43:33;100832.94;;;0.13;65.11
27984;BME280;15317;50.360;8.726;2024-01-11T15:48:36;100843.63;;;0.13;65.18
27984;BME280;15317;50.360;8.726;2024-01-11T15:53:41;100856.88;;;-0.07;67.79
27984;BME280;15317;50.360;8.726;2024-01-11T15:58:45;100848.88;;;-0.30;69.35
27984;BME280;15317;50.360;8.726;2024-01-11T16:03:49;100856.13;;;-0.57;72.23
27984;BME280;15317;50.360;8.726;2024-01-11T16:08:55;100863.16;;;-0.80;75.72
27984;BME280;15317;50.360;8.726;2024-01-11T16:13:58;100865.50;;;-0.95;78.63
27984;BME280;15317;50.360;8.726;2024-01-11T16:19:02;100862.47;;;-1.09;80.28
27984;BME280;15317;50.360;8.726;2024-01-11T16:24:07;100854.94;;;-1.23;84.01
27984;BME280;15317;50.360;8.726;2024-01-11T16:29:10;100854.38;;;-1.33;85.09
27984;BME280;15317;50.360;8.726;2024-01-11T16:34:13;100854.88;;;-1.22;87.41
27984;BME280;15317;50.360;8.726;2024-01-11T16:39:18;100860.66;;;-1.35;88.88
27984;BME280;15317;50.360;8.726;2024-01-11T16:44:21;100860.34;;;-1.51;90.17
27984;BME280;15317;50.360;8.726;2024-01-11T16:49:24;100858.78;;;-1.58;91.67
27984;BME280;15317;50.360;8.726;2024-01-11T16:54:28;100855.59;;;-1.69;91.83
27984;BME280;15317;50.360;8.726;2024-01-11T16:59:32;100856.69;;;-1.76;92.58
27984;BME280;15317;50.360;8.726;2024-01-11T17:04:37;100862.03;;;-1.76;91.86
27984;BME280;15317;50.360;8.726;2024-01-11T17:09:43;100866.75;;;-1.84;92.07
27984;BME280;15317;50.360;8.726;2024-01-11T17:14:46;100881.69;;;-1.80;91.71
27984;BME280;15317;50.360;8.726;2024-01-11T17:19:50;100875.84;;;-1.91;92.63
27984;BME280;15317;50.360;8.726;2024-01-11T17:24:54;100884.75;;;-1.92;93.89
27984;BME280;15317;50.360;8.726;2024-01-11T17:29:59;100874.91;;;-1.90;95.12
27984;BME280;15317;50.360;8.726;2024-01-11T17:35:03;100882.88;;;-1.90;96.45
27984;BME280;15317;50.360;8.726;2024-01-11T17:40:09;100873.25;;;-1.94;96.27
27984;BME280;15317;50.360;8.726;2024-01-11T17:45:13;100876.56;;;-1.86;96.54
27984;BME280;15317;50.360;8.726;2024-01-11T17:50:16;100879.31;;;-1.89;95.51
27984;BME280;15317;50.360;8.726;2024-01-11T17:55:20;100881.50;;;-1.74;93.17
27984;BME280;15317;50.360;8.726;2024-01-11T18:00:24;100893.75;;;-1.69;93.26
27984;BME280;15317;50.360;8.726;2024-01-11T18:05:31;100907.50;;;-1.54;90.97
27984;BME280;15317;50.360;8.726;2024-01-11T18:10:36;100900.66;;;-1.35;88.24
27984;BME280;15317;50.360;8.726;2024-01-11T18:15:40;100903.97;;;-1.29;85.78
27984;BME280;15317;50.360;8.726;2024-01-11T18:20:43;100904.72;;;-1.24;85.32
27984;BME280;15317;50.360;8.726;2024-01-11T18:25:48;100905.50;;;-1.22;82.94
27984;BME280;15317;50.360;8.726;2024-01-11T18:30:51;100901.09;;;-1.23;83.60
27984;BME280;15317;50.360;8.726;2024-01-11T18:35:54;100902.34;;;-1.33;83.25
27984;BME280;15317;50.360;8.726;2024-01-11T18:40:59;100913.72;;;-1.28;83.21
27984;BME280;15317;50.360;8.726;2024-01-11T18:46:04;100914.63;;;-1.55;84.84
27984;BME280;15317;50.360;8.726;2024-01-11T18:51:07;100909.78;;;-1.70;87.65
27984;BME280;15317;50.360;8.726;2024-01-11T18:56:15;100905.66;;;-1.80;89.73
27984;BME280;15317;50.360;8.726;2024-01-11T19:01:18;100909.81;;;-2.00;93.14
27984;BME280;15317;50.360;8.726;2024-01-11T19:06:27;100918.47;;;-1.91;96.43
27984;BME280;15317;50.360;8.726;2024-01-11T19:11:33;100942.72;;;-1.73;98.74
27984;BME280;15317;50.360;8.726;2024-01-11T19:16:36;100949.88;;;-1.75;100.00
27984;BME280;15317;50.360;8.726;2024-01-11T19:21:39;100956.91;;;-1.72;100.00
27984;BME280;15317;50.360;8.726;2024-01-11T19:26:44;100955.34;;;-1.79;100.00
27984;BME280;15317;50.360;8.726;2024-01-11T19:31:51;100946.72;;;-1.87;100.00
27984;BME280;15317;50.360;8.726;2024-01-11T19:36:54;100953.97;;;-1.92;100.00
27984;BME280;15317;50.360;8.726;2024-01-11T19:41:59;100965.94;;;-2.07;100.00
27984;BME280;15317;50.360;8.726;2024-01-11T19:47:02;100960.88;;;-2.16;100.00
27984;BME280;15317;50.360;8.726;2024-01-11T19:52:05;100956.78;;;-2.28;100.00
27984;BME280;15317;50.360;8.726;2024-01-11T19:57:10;100962.47;;;-2.40;100.00
27984;BME280;15317;50.360;8.726;2024-01-11T20:02:13;100966.28;;;-2.50;100.00
27984;BME280;15317;50.360;8.726;2024-01-11T20:07:16;100969.84;;;-2.51;100.00
27984;BME280;15317;50.360;8.726;2024-01-11T20:12:22;100965.69;;;-2.29;100.00
27984;BME280;15317;50.360;8.726;2024-01-11T20:17:25;100963.31;;;-2.09;100.00
27984;BME280;15317;50.360;8.726;2024-01-11T20:22:28;100967.31;;;-1.92;100.00
27984;BME280;15317;50.360;8.726;2024-01-11T20:27:33;100969.59;;;-1.80;100.00
27984;BME280;15317;50.360;8.726;2024-01-11T20:32:37;100974.66;;;-1.71;100.00
27984;BME280;15317;50.360;8.726;2024-01-11T20:37:40;100980.75;;;-1.68;100.00
27984;BME280;15317;50.360;8.726;2024-01-11T20:42:45;100974.94;;;-1.52;100.00
27984;BME280;15317;50.360;8.726;2024-01-11T20:47:48;100995.19;;;-1.47;100.00
27984;BME280;15317;50.360;8.726;2024-01-11T20:52:52;100991.38;;;-1.38;100.00
27984;BME280;15317;50.360;8.726;2024-01-11T20:57:57;100993.16;;;-1.39;100.00
27984;BME280;15317;50.360;8.726;2024-01-11T21:03:00;101000.31;;;-1.41;100.00
27984;BME280;15317;50.360;8.726;2024-01-11T21:08:04;100995.69;;;-1.34;100.00
27984;BME280;15317;50.360;8.726;2024-01-11T21:13:08;100987.19;;;-1.19;100.00
27984;BME280;15317;50.360;8.726;2024-01-11T21:18:13;100983.84;;;-1.26;100.00
27984;BME280;15317;50.360;8.726;2024-01-11T21:23:17;100993.28;;;-1.15;100.00
27984;BME280;15317;50.360;8.726;2024-01-11T21:28:22;101008.47;;;-1.17;100.00
27984;BME280;15317;50.360;8.726;2024-01-11T21:33:25;100995.84;;;-1.11;100.00
27984;BME280;15317;50.360;8.726;2024-01-11T21:38:28;100999.22;;;-1.06;100.00
27984;BME280;15317;50.360;8.726;2024-01-11T21:43:32;100994.53;;;-0.99;100.00
27984;BME280;15317;50.360;8.726;2024-01-11T21:48:36;100998.47;;;-0.83;100.00
27984;BME280;15317;50.360;8.726;2024-01-11T21:53:39;101001.16;;;-0.85;100.00
27984;BME280;15317;50.360;8.726;2024-01-11T21:58:44;100994.97;;;-0.85;100.00
27984;BME280;15317;50.360;8.726;2024-01-11T22:03:48;100996.50;;;-0.78;100.00
27984;BME280;15317;50.360;8.726;2024-01-11T22:08:51;100993.22;;;-0.86;100.00
27984;BME280;15317;50.360;8.726;2024-01-11T22:14:00;100986.97;;;-0.85;100.00
27984;BME280;15317;50.360;8.726;2024-01-11T22:19:05;100976.47;;;-0.90;100.00
27984;BME280;15317;50.360;8.726;2024-01-11T22:24:09;100973.53;;;-0.82;100.00
27984;BME280;15317;50.360;8.726;2024-01-11T22:29:13;100970.13;;;-0.87;100.00
27984;BME280;15317;50.360;8.726;2024-01-11T22:34:17;100969.16;;;-0.85;100.00
27984;BME280;15317;50.360;8.726;2024-01-11T22:39:20;100962.66;;;-0.76;100.00
27984;BME280;15317;50.360;8.726;2024-01-11T22:44:25;100980.06;;;-0.66;100.00
27984;BME280;15317;50.360;8.726;2024-01-11T22:49:29;100970.38;;;-0.68;100.00
27984;BME280;15317;50.360;8.726;2024-01-11T22:54:32;100969.69;;;-0.75;100.00
27984;BME280;15317;50.360;8.726;2024-01-11T22:59:37;100965.84;;;-0.66;100.00
27984;BME280;15317;50.360;8.726;2024-01-11T23:04:40;100963.31;;;-0.69;100.00
27984;BME280;15317;50.360;8.726;2024-01-11T23:09:43;100958.66;;;-0.64;100.00
27984;BME280;15317;50.360;8.726;2024-01-11T23:14:48;100961.94;;;-0.56;100.00
27984;BME280;15317;50.360;8.726;2024-01-11T23:19:51;100960.19;;;-0.57;100.00
27984;BME280;15317;50.360;8.726;2024-01-11T23:24:54;100957.97;;;-0.45;100.00
27984;BME280;15317;50.360;8.726;2024-01-11T23:29:59;100949.25;;;-0.50;100.00
27984;BME280;15317;50.360;8.726;2024-01-11T23:35:02;100957.75;;;-0.38;100.00
27984;BME280;15317;50.360;8.726;2024-01-11T23:40:07;100950.72;;;-0.41;100.00
27984;BME280;15317;50.360;8.726;2024-01-11T23:45:12;100937.16;;;-0.35;100.00
27984;BME280;15317;50.360;8.726;2024-01-11T23:50:15;100942.59;;;-0.38;100.00
27984;BME280;15317;50.360;8.726;2024-01-11T23:55:19;100942.59;;;-0.38;100.00
